createdAt,value
2018-11-25T00:00:08.485Z,6.00
2018-11-25T00:02:33.566Z,5.93
2018-11-25T00:04:58.591Z,6.05
2018-11-25T00:07:23.645Z,5.90
2018-11-25T00:09:48.788Z,5.97
2018-11-25T00:12:13.868Z,5.93
2018-11-25T00:14:38.923Z,6.03
2018-11-25T00:17:03.978Z,6.00
2018-11-25T00:19:29.042Z,5.98
2018-11-25T00:21:54.097Z,6.09
2018-11-25T00:24:19.182Z,5.66
2018-11-25T00:26:44.248Z,5.91
2018-11-25T00:29:09.291Z,5.89
2018-11-25T00:34:10.989Z,6.02
2018-11-25T00:36:36.056Z,6.05
2018-11-25T00:39:01.124Z,6.14
2018-11-25T00:41:26.226Z,6.01
2018-11-25T00:43:51.317Z,6.00
2018-11-25T00:46:16.415Z,6.03
2018-11-25T00:48:41.495Z,6.04
2018-11-25T00:51:06.854Z,6.09
2018-11-25T00:53:31.955Z,6.05
2018-11-25T00:55:57.034Z,6.09
2018-11-25T00:58:22.104Z,6.02
2018-11-25T01:00:47.200Z,6.06
2018-11-25T01:03:12.302Z,6.10
2018-11-25T01:05:37.432Z,5.97
2018-11-25T01:08:02.619Z,6.05
2018-11-25T01:10:27.750Z,6.06
2018-11-25T01:12:52.814Z,5.86
2018-11-25T01:15:18.600Z,5.92
2018-11-25T01:17:43.780Z,6.03
2018-11-25T01:20:28.808Z,6.02
2018-11-25T01:22:53.887Z,6.09
2018-11-25T01:25:18.968Z,6.11
2018-11-25T01:27:44.076Z,6.08
2018-11-25T01:30:29.054Z,5.92
2018-11-25T01:32:54.158Z,6.08
2018-11-25T01:35:19.282Z,6.14
2018-11-25T01:37:44.457Z,6.07
2018-11-25T01:40:28.590Z,5.92
2018-11-25T01:42:53.816Z,6.09
2018-11-25T01:45:19.253Z,6.17
2018-11-25T01:47:44.373Z,6.15
2018-11-25T01:50:10.990Z,6.22
2018-11-25T01:52:36.122Z,6.13
2018-11-25T01:55:01.206Z,6.19
2018-11-25T01:57:26.325Z,6.13
2018-11-25T01:59:51.421Z,6.09
2018-11-25T02:02:16.504Z,6.11
2018-11-25T02:09:56.487Z,6.14
2018-11-25T02:12:21.599Z,5.92
2018-11-25T02:14:46.710Z,6.06
2018-11-25T02:17:11.825Z,6.06
2018-11-25T02:19:36.903Z,6.22
2018-11-25T02:22:02.016Z,6.19
2018-11-25T02:24:27.081Z,6.13
2018-11-25T02:27:03.857Z,6.06
2018-11-25T02:34:42.257Z,6.16
2018-11-25T02:37:07.521Z,6.19
2018-11-25T02:39:32.604Z,6.20
2018-11-25T02:41:57.666Z,6.12
2018-11-25T02:44:22.834Z,6.17
2018-11-25T02:46:47.882Z,6.20
2018-11-25T02:49:12.970Z,6.15
2018-11-25T02:51:38.045Z,6.20
2018-11-25T02:54:03.102Z,6.11
2018-11-25T02:56:28.235Z,6.27
2018-11-25T02:58:53.275Z,6.16
2018-11-25T03:01:18.461Z,5.99
2018-11-25T03:03:43.560Z,6.08
2018-11-25T03:06:08.649Z,6.17
2018-11-25T03:08:33.790Z,6.13
2018-11-25T03:10:58.908Z,6.15
2018-11-25T03:13:24.089Z,6.22
2018-11-25T03:15:49.146Z,5.98
2018-11-25T03:20:52.984Z,6.15
2018-11-25T03:23:18.363Z,6.14
2018-11-25T03:25:43.426Z,6.19
2018-11-25T03:28:08.495Z,6.05
2018-11-25T03:30:33.594Z,6.22
2018-11-25T03:32:58.668Z,6.16
2018-11-25T03:35:23.767Z,6.20
2018-11-25T03:37:51.208Z,6.00
2018-11-25T03:40:17.229Z,6.17
2018-11-25T03:42:42.329Z,6.02
2018-11-25T03:45:27.883Z,6.21
2018-11-25T03:47:52.937Z,6.13
2018-11-25T03:50:18.103Z,6.29
2018-11-25T03:52:43.149Z,6.32
2018-11-25T03:55:20.291Z,6.23
2018-11-25T03:57:45.394Z,6.21
2018-11-25T04:00:32.891Z,6.24
2018-11-25T04:02:57.954Z,6.19
2018-11-25T04:05:23.012Z,6.22
2018-11-25T04:07:48.403Z,6.08
2018-11-25T04:10:32.501Z,6.13
2018-11-25T04:12:57.628Z,6.02
2018-11-25T04:15:22.689Z,6.20
2018-11-25T04:17:48.109Z,6.12
2018-11-25T04:20:14.420Z,6.13
2018-11-25T04:22:39.690Z,5.93
2018-11-25T04:25:04.759Z,6.17
2018-11-25T04:27:30.001Z,6.16
2018-11-25T04:29:54.894Z,6.20
2018-11-25T04:32:19.969Z,6.19
2018-11-25T04:34:45.016Z,6.14
2018-11-25T04:37:10.096Z,6.20
2018-11-25T04:39:35.145Z,6.21
2018-11-25T04:42:00.181Z,6.05
2018-11-25T04:44:25.297Z,6.22
2018-11-25T04:46:50.325Z,6.20
2018-11-25T04:49:15.408Z,5.83
2018-11-25T04:51:40.433Z,6.07
2018-11-25T04:54:05.565Z,6.24
2018-11-25T04:56:30.619Z,6.26
2018-11-25T04:58:55.661Z,6.34
2018-11-25T05:01:39.766Z,6.22
2018-11-25T05:04:04.825Z,6.21
2018-11-25T05:06:29.922Z,6.29
2018-11-25T05:08:55.102Z,6.29
2018-11-25T05:14:15.955Z,6.22
2018-11-25T05:16:41.007Z,6.21
2018-11-25T05:19:06.115Z,6.24
2018-11-25T05:21:31.217Z,6.26
2018-11-25T05:23:56.275Z,6.30
2018-11-25T05:26:21.407Z,6.21
2018-11-25T05:28:46.477Z,6.32
2018-11-25T05:31:11.521Z,6.14
2018-11-25T05:33:36.576Z,6.31
2018-11-25T05:36:01.864Z,6.35
2018-11-25T05:38:26.960Z,6.19
2018-11-25T05:40:52.019Z,6.19
2018-11-25T05:43:17.114Z,6.24
2018-11-25T05:45:42.171Z,6.03
2018-11-25T05:48:07.341Z,6.26
2018-11-25T05:50:32.428Z,6.24
2018-11-25T05:52:57.489Z,6.14
2018-11-25T05:55:22.554Z,6.16
2018-11-25T05:57:47.644Z,6.22
2018-11-25T06:00:41.377Z,6.32
2018-11-25T06:03:06.448Z,6.24
2018-11-25T06:05:31.557Z,6.29
2018-11-25T06:07:56.663Z,6.30
2018-11-25T06:10:21.752Z,6.15
2018-11-25T06:12:46.839Z,6.19
2018-11-25T06:15:12.929Z,6.23
2018-11-25T06:17:45.649Z,6.25
2018-11-25T06:20:30.614Z,6.14
2018-11-25T06:22:55.655Z,6.27
2018-11-25T06:25:21.657Z,6.32
2018-11-25T06:27:46.695Z,6.09
2018-11-25T06:30:30.783Z,6.12
2018-11-25T06:32:55.842Z,6.29
2018-11-25T06:35:21.205Z,6.26
2018-11-25T06:40:23.108Z,6.26
2018-11-25T06:42:59.740Z,6.22
2018-11-25T06:45:43.836Z,6.22
2018-11-25T06:48:09.041Z,6.35
2018-11-25T06:50:34.088Z,6.42
2018-11-25T06:52:59.135Z,6.33
2018-11-25T06:55:24.191Z,6.33
2018-11-25T06:57:49.233Z,6.38
2018-11-25T07:00:15.594Z,6.32
2018-11-25T07:02:40.664Z,6.31
2018-11-25T07:05:05.806Z,6.42
2018-11-25T07:07:30.871Z,6.39
2018-11-25T07:09:55.929Z,6.48
2018-11-25T07:12:21.007Z,6.39
2018-11-25T07:14:46.056Z,6.42
2018-11-25T07:17:11.099Z,6.34
2018-11-25T07:19:36.136Z,6.35
2018-11-25T07:22:01.184Z,6.44
2018-11-25T07:24:26.236Z,6.48
2018-11-25T07:26:51.333Z,6.49
2018-11-25T07:29:16.375Z,6.40
2018-11-25T07:31:41.451Z,6.10
2018-11-25T07:34:06.555Z,6.43
2018-11-25T07:36:31.596Z,6.43
2018-11-25T07:38:56.679Z,6.56
2018-11-25T07:41:21.748Z,6.48
2018-11-25T07:43:46.809Z,6.53
2018-11-25T07:46:11.899Z,6.43
2018-11-25T07:51:13.035Z,6.63
2018-11-25T07:53:38.063Z,6.56
2018-11-25T07:56:03.145Z,6.49
2018-11-25T07:58:40.785Z,6.62
2018-11-25T08:01:05.798Z,6.57
2018-11-25T08:03:30.880Z,6.67
2018-11-25T08:05:56.026Z,6.63
2018-11-25T08:08:21.100Z,6.47
2018-11-25T08:10:46.247Z,6.51
2018-11-25T08:13:11.301Z,6.61
2018-11-25T08:15:55.350Z,6.72
2018-11-25T08:18:20.437Z,6.58
2018-11-25T08:20:45.492Z,6.62
2018-11-25T08:23:10.588Z,6.63
2018-11-25T08:25:35.650Z,6.66
2018-11-25T08:28:00.732Z,6.78
2018-11-25T08:30:25.852Z,6.76
2018-11-25T08:32:51.024Z,6.64
2018-11-25T08:35:16.609Z,6.61
2018-11-25T08:37:41.669Z,6.74
2018-11-25T08:40:27.924Z,6.75
2018-11-25T08:42:53.045Z,6.74
2018-11-25T08:45:18.113Z,6.77
2018-11-25T08:47:43.258Z,6.71
2018-11-25T08:50:27.395Z,6.62
2018-11-25T08:52:55.214Z,6.75
2018-11-25T08:55:21.349Z,6.77
2018-11-25T08:57:46.574Z,6.84
2018-11-25T09:00:21.376Z,6.68
2018-11-25T09:02:46.523Z,6.72
2018-11-25T09:05:12.750Z,6.45
2018-11-25T09:07:37.832Z,6.64
2018-11-25T09:10:02.930Z,6.80
2018-11-25T09:12:28.054Z,6.88
2018-11-25T09:14:53.208Z,6.87
2018-11-25T09:17:20.825Z,6.65
2018-11-25T09:19:45.947Z,6.51
2018-11-25T09:22:11.033Z,6.72
2018-11-25T09:24:36.113Z,6.86
2018-11-25T09:27:01.239Z,6.84
2018-11-25T09:29:26.345Z,6.89
2018-11-25T09:31:51.450Z,6.96
2018-11-25T09:34:16.506Z,6.93
2018-11-25T09:36:41.582Z,6.86
2018-11-25T09:39:09.114Z,6.92
2018-11-25T09:41:34.196Z,7.02
2018-11-25T09:43:59.310Z,6.78
2018-11-25T09:46:24.454Z,6.87
2018-11-25T09:48:49.564Z,6.60
2018-11-25T09:51:14.588Z,6.87
2018-11-25T09:53:39.714Z,6.77
2018-11-25T09:56:04.837Z,6.86
2018-11-25T09:58:29.903Z,6.88
2018-11-25T10:00:55.049Z,6.83
2018-11-25T10:03:20.120Z,6.89
2018-11-25T10:05:45.258Z,6.65
2018-11-25T10:08:10.329Z,6.72
2018-11-25T10:10:35.466Z,6.87
2018-11-25T10:13:00.575Z,6.87
2018-11-25T10:15:26.802Z,6.83
2018-11-25T10:17:59.033Z,7.03
2018-11-25T10:20:36.057Z,6.83
2018-11-25T10:23:01.229Z,6.89
2018-11-25T10:25:26.293Z,6.79
2018-11-25T10:27:51.376Z,6.87
2018-11-25T10:30:35.512Z,6.98
2018-11-25T10:33:04.822Z,6.94
2018-11-25T10:35:29.923Z,7.21
2018-11-25T10:38:13.944Z,7.33
2018-11-25T10:40:39.355Z,7.23
2018-11-25T10:43:04.435Z,7.31
2018-11-25T10:45:29.806Z,7.25
2018-11-25T10:47:55.022Z,6.75
2018-11-25T10:50:20.761Z,6.89
2018-11-25T10:52:45.872Z,6.92
2018-11-25T10:55:12.202Z,6.93
2018-11-25T10:57:37.301Z,7.26
2018-11-25T11:00:02.426Z,7.18
2018-11-25T11:02:46.194Z,7.30
2018-11-25T11:05:11.296Z,7.23
2018-11-25T11:07:55.378Z,7.32
2018-11-25T11:10:20.527Z,7.37
2018-11-25T11:12:45.606Z,7.31
2018-11-25T11:15:12.146Z,7.30
2018-11-25T11:17:37.224Z,7.35
2018-11-25T11:20:02.340Z,7.21
2018-11-25T11:22:27.430Z,7.13
2018-11-25T11:24:52.497Z,6.86
2018-11-25T11:27:17.601Z,7.16
2018-11-25T11:29:42.772Z,6.81
2018-11-25T11:32:07.833Z,7.06
2018-11-25T11:34:32.960Z,7.35
2018-11-25T11:36:58.052Z,7.41
2018-11-25T11:39:23.159Z,7.47
2018-11-25T11:41:48.231Z,7.52
2018-11-25T11:44:13.349Z,7.31
2018-11-25T11:46:38.469Z,7.24
2018-11-25T11:49:03.599Z,7.20
2018-11-25T11:51:28.799Z,7.42
2018-11-25T11:53:53.886Z,7.39
2018-11-25T11:56:18.969Z,7.42
2018-11-25T11:58:44.133Z,7.49
2018-11-25T12:01:09.636Z,7.43
2018-11-25T12:03:34.834Z,7.18
2018-11-25T12:05:59.943Z,7.29
2018-11-25T12:08:25.035Z,7.15
2018-11-25T12:10:50.216Z,7.22
2018-11-25T12:13:15.353Z,7.29
2018-11-25T12:15:40.473Z,7.26
2018-11-25T12:18:05.862Z,7.39
2018-11-25T12:20:32.139Z,7.23
2018-11-25T12:22:57.716Z,7.40
2018-11-25T12:25:22.850Z,7.31
2018-11-25T12:27:50.265Z,7.32
2018-11-25T12:30:34.376Z,7.44
2018-11-25T12:32:59.608Z,7.37
2018-11-25T12:35:24.738Z,7.60
2018-11-25T12:37:49.866Z,7.54
2018-11-25T12:40:19.022Z,7.65
2018-11-25T12:43:03.541Z,7.58
2018-11-25T12:45:28.791Z,7.71
2018-11-25T12:50:30.767Z,7.48
2018-11-25T12:52:56.235Z,7.53
2018-11-25T12:55:22.499Z,7.65
2018-11-25T12:57:47.592Z,7.76
2018-11-25T13:00:32.536Z,7.84
2018-11-25T13:02:57.956Z,7.78
2018-11-25T13:05:23.201Z,7.78
2018-11-25T13:07:48.546Z,7.60
2018-11-25T13:10:13.951Z,7.63
2018-11-25T13:12:39.059Z,7.63
2018-11-25T13:15:04.183Z,7.55
2018-11-25T13:17:29.310Z,7.43
2018-11-25T13:19:54.413Z,7.57
2018-11-25T13:22:19.755Z,7.86
2018-11-25T13:24:44.825Z,7.88
2018-11-25T13:29:47.513Z,7.97
2018-11-25T13:32:12.822Z,7.68
2018-11-25T13:34:38.121Z,7.63
2018-11-25T13:37:03.289Z,7.77
2018-11-25T13:39:30.223Z,7.90
2018-11-25T13:41:54.153Z,7.65
2018-11-25T13:44:19.302Z,7.71
2018-11-25T13:46:44.398Z,7.91
2018-11-25T13:49:09.732Z,7.99
2018-11-25T13:51:35.019Z,7.84
2018-11-25T13:54:00.695Z,7.81
2018-11-25T13:56:26.059Z,8.00
2018-11-25T13:58:51.360Z,7.87
2018-11-25T14:01:16.479Z,7.98
2018-11-25T14:03:42.897Z,7.79
2018-11-25T14:06:27.005Z,7.94
2018-11-25T14:08:53.888Z,7.98
2018-11-25T14:11:18.961Z,7.80
2018-11-25T14:13:44.103Z,7.86
2018-11-25T14:16:10.859Z,7.38
2018-11-25T14:18:35.964Z,7.78
2018-11-25T14:21:01.065Z,7.86
2018-11-25T14:23:26.206Z,7.66
2018-11-25T14:25:51.505Z,7.83
2018-11-25T14:28:17.336Z,7.60
2018-11-25T14:30:42.434Z,7.88
2018-11-25T14:33:08.097Z,7.84
2018-11-25T14:35:33.254Z,7.80
2018-11-25T14:37:58.343Z,7.84
2018-11-25T14:40:23.474Z,7.78
2018-11-25T14:42:48.575Z,7.81
2018-11-25T14:45:14.839Z,7.99
2018-11-25T14:47:40.016Z,7.99
2018-11-25T14:50:06.138Z,7.52
2018-11-25T14:52:31.231Z,7.80
2018-11-25T14:54:56.333Z,7.87
2018-11-25T14:57:21.443Z,7.65
2018-11-25T14:59:46.553Z,7.32
2018-11-25T15:02:11.687Z,7.74
2018-11-25T15:04:36.801Z,7.59
2018-11-25T15:07:01.920Z,7.51
2018-11-25T15:09:26.994Z,7.65
2018-11-25T15:11:52.097Z,7.76
2018-11-25T15:14:17.264Z,7.35
2018-11-25T15:19:19.268Z,7.38
2018-11-25T15:21:44.402Z,7.57
2018-11-25T15:24:09.499Z,7.77
2018-11-25T15:26:34.621Z,7.43
2018-11-25T15:28:59.738Z,7.51
2018-11-25T15:34:01.656Z,7.56
2018-11-25T15:36:45.719Z,7.36
2018-11-25T15:39:12.359Z,7.60
2018-11-25T15:41:37.497Z,7.70
2018-11-25T15:44:02.620Z,7.71
2018-11-25T15:46:27.744Z,7.73
2018-11-25T15:48:52.854Z,7.79
2018-11-25T15:51:18.015Z,7.83
2018-11-25T15:53:43.149Z,7.75
2018-11-25T15:56:27.337Z,7.43
2018-11-25T15:58:52.438Z,7.15
2018-11-25T16:01:17.541Z,7.31
2018-11-25T16:03:42.642Z,7.26
2018-11-25T16:06:45.725Z,7.67
2018-11-25T16:09:11.051Z,7.51
2018-11-25T16:11:36.211Z,7.81
2018-11-25T16:14:01.366Z,7.88
2018-11-25T16:16:26.526Z,7.70
2018-11-25T16:18:51.669Z,7.89
2018-11-25T16:21:16.750Z,7.96
2018-11-25T16:23:41.857Z,7.84
2018-11-25T16:26:30.124Z,7.97
2018-11-25T16:28:57.292Z,8.03
2018-11-25T16:31:22.414Z,7.89
2018-11-25T16:33:47.578Z,7.98
2018-11-25T16:36:12.679Z,7.78
2018-11-25T16:38:37.863Z,7.84
2018-11-25T16:41:02.986Z,7.79
2018-11-25T16:43:28.193Z,7.85
2018-11-25T16:45:53.256Z,7.61
2018-11-25T16:48:37.326Z,7.96
2018-11-25T16:51:02.436Z,7.91
2018-11-25T16:53:27.582Z,7.95
2018-11-25T16:55:52.752Z,7.95
2018-11-25T16:58:17.899Z,8.00
2018-11-25T17:00:43.184Z,7.99
2018-11-25T17:03:08.588Z,7.96
2018-11-25T17:05:35.513Z,7.97
2018-11-25T17:08:12.139Z,7.83
2018-11-25T17:10:37.323Z,7.54
2018-11-25T17:13:02.429Z,7.94
2018-11-25T17:15:28.960Z,7.91
2018-11-25T17:17:54.091Z,8.07
2018-11-25T17:20:19.528Z,7.94
2018-11-25T17:22:44.644Z,7.98
2018-11-25T17:25:12.005Z,7.94
2018-11-25T17:27:36.574Z,7.65
2018-11-25T17:30:01.681Z,7.69
2018-11-25T17:32:27.078Z,7.63
2018-11-25T17:34:52.147Z,7.95
2018-11-25T17:37:17.240Z,7.97
2018-11-25T17:39:42.371Z,7.77
2018-11-25T17:42:07.649Z,7.69
2018-11-25T17:44:32.816Z,7.74
2018-11-25T17:46:57.954Z,7.77
2018-11-25T17:49:23.056Z,7.83
2018-11-25T17:51:48.193Z,7.71
2018-11-25T17:54:13.327Z,8.05
2018-11-25T17:56:38.443Z,7.98
2018-11-25T17:59:03.787Z,7.53
2018-11-25T18:01:28.945Z,7.71
2018-11-25T18:03:54.061Z,7.73
2018-11-25T18:06:19.157Z,7.88
2018-11-25T18:08:44.299Z,8.01
2018-11-25T18:11:09.400Z,7.92
2018-11-25T18:13:54.624Z,7.96
2018-11-25T18:16:19.754Z,7.97
2018-11-25T18:18:53.761Z,7.83
2018-11-25T18:21:23.550Z,7.83
2018-11-25T18:23:48.712Z,7.89
2018-11-25T18:26:13.820Z,8.04
2018-11-25T18:28:38.946Z,7.65
2018-11-25T18:31:04.091Z,7.84
2018-11-25T18:33:29.342Z,7.94
2018-11-25T18:35:54.439Z,7.93
2018-11-25T18:38:19.599Z,7.84
2018-11-25T18:40:44.708Z,7.76
2018-11-25T18:43:09.922Z,7.65
2018-11-25T18:45:35.128Z,7.74
2018-11-25T18:48:00.307Z,7.94
2018-11-25T18:50:25.437Z,7.90
2018-11-25T18:52:51.970Z,7.91
2018-11-25T18:55:15.314Z,8.02
2018-11-25T18:57:40.581Z,7.81
2018-11-25T19:00:08.828Z,7.81
2018-11-25T19:02:52.991Z,7.84
2018-11-25T19:05:18.128Z,7.96
2018-11-25T19:07:43.422Z,7.91
2018-11-25T19:10:15.710Z,7.66
2018-11-25T19:12:44.372Z,7.84
2018-11-25T19:15:07.058Z,8.03
2018-11-25T19:17:32.203Z,8.11
2018-11-25T19:19:57.309Z,7.75
2018-11-25T19:22:22.537Z,7.60
2018-11-25T19:24:47.723Z,7.79
2018-11-25T19:27:12.857Z,7.41
2018-11-25T19:29:38.062Z,7.36
2018-11-25T19:32:03.190Z,7.70
2018-11-25T19:34:28.336Z,7.23
2018-11-25T19:36:53.457Z,7.51
2018-11-25T19:39:18.659Z,7.33
2018-11-25T19:41:43.753Z,7.15
2018-11-25T19:44:08.848Z,7.61
2018-11-25T19:46:33.979Z,7.81
2018-11-25T19:48:59.084Z,7.72
2018-11-25T19:51:24.328Z,7.69
2018-11-25T19:53:49.452Z,7.63
2018-11-25T19:56:14.959Z,7.24
2018-11-25T19:58:40.026Z,7.35
2018-11-25T20:01:05.199Z,7.59
2018-11-25T20:03:30.456Z,7.39
2018-11-25T20:05:55.629Z,7.54
2018-11-25T20:08:20.809Z,7.35
2018-11-25T20:10:45.968Z,7.65
2018-11-25T20:13:11.992Z,7.32
2018-11-25T20:15:36.799Z,7.23
2018-11-25T20:18:01.922Z,7.68
2018-11-25T20:20:27.859Z,7.51
2018-11-25T20:22:53.465Z,7.67
2018-11-25T20:25:18.953Z,7.66
2018-11-25T20:27:48.722Z,7.54
2018-11-25T20:30:14.929Z,7.52
2018-11-25T20:32:58.757Z,7.48
2018-11-25T20:35:23.953Z,7.48
2018-11-25T20:38:07.781Z,7.69
2018-11-25T20:40:32.983Z,7.51
2018-11-25T20:42:58.064Z,7.41
2018-11-25T20:45:42.346Z,7.06
2018-11-25T20:48:07.491Z,7.48
2018-11-25T20:50:32.618Z,7.52
2018-11-25T20:53:16.460Z,7.44
2018-11-25T20:55:41.543Z,7.72
2018-11-25T20:58:08.426Z,7.55
2018-11-25T21:00:45.250Z,7.30
2018-11-25T21:03:11.698Z,7.31
2018-11-25T21:05:36.784Z,7.37
2018-11-25T21:08:02.013Z,7.35
2018-11-25T21:10:27.252Z,7.46
2018-11-25T21:12:53.655Z,7.39
2018-11-25T21:15:18.781Z,7.73
2018-11-25T21:17:43.845Z,7.31
2018-11-25T21:20:28.604Z,7.33
2018-11-25T21:22:53.736Z,7.67
2018-11-25T21:25:19.944Z,7.68
2018-11-25T21:27:45.093Z,7.64
2018-11-25T21:30:41.869Z,7.49
2018-11-25T21:33:07.871Z,7.51
2018-11-25T21:35:33.009Z,7.20
2018-11-25T21:37:58.166Z,7.50
2018-11-25T21:40:41.109Z,7.73
2018-11-25T21:43:06.745Z,7.49
2018-11-25T21:45:31.872Z,7.60
2018-11-25T21:47:58.041Z,7.43
2018-11-25T21:50:23.531Z,7.61
2018-11-25T21:52:48.620Z,6.99
2018-11-25T21:55:17.517Z,7.56
2018-11-25T21:57:42.673Z,7.04
2018-11-25T22:00:28.709Z,6.91
2018-11-25T22:02:53.795Z,7.34
2018-11-25T22:05:20.071Z,7.58
2018-11-25T22:10:25.236Z,7.68
2018-11-25T22:12:50.609Z,7.63
2018-11-25T22:15:35.260Z,7.59
2018-11-25T22:18:00.376Z,7.45
2018-11-25T22:20:25.482Z,7.40
2018-11-25T22:22:50.871Z,7.51
2018-11-25T22:25:34.969Z,7.35
2018-11-25T22:28:00.051Z,7.58
2018-11-25T22:30:25.456Z,7.76
2018-11-25T22:32:50.600Z,7.28
2018-11-25T22:35:16.911Z,7.48
2018-11-25T22:37:42.219Z,7.21
2018-11-25T22:40:08.975Z,7.23
2018-11-25T22:42:34.072Z,7.36
2018-11-25T22:44:59.202Z,7.53
2018-11-25T22:47:24.344Z,7.74
2018-11-25T22:49:49.441Z,7.64
2018-11-25T22:52:14.539Z,7.64
2018-11-25T22:54:39.613Z,7.40
2018-11-25T22:57:04.719Z,7.24
2018-11-25T22:59:29.818Z,7.14
2018-11-25T23:01:54.958Z,7.53
2018-11-25T23:04:58.019Z,7.41
2018-11-25T23:07:23.190Z,7.37
2018-11-25T23:09:48.284Z,7.55
2018-11-25T23:12:13.792Z,7.71
2018-11-25T23:14:38.866Z,7.53
2018-11-25T23:17:03.954Z,7.47
2018-11-25T23:19:29.034Z,7.16
2018-11-25T23:21:54.111Z,7.47
2018-11-25T23:24:19.158Z,7.42
2018-11-25T23:26:44.213Z,7.39
2018-11-25T23:29:09.311Z,7.02
2018-11-25T23:31:34.380Z,7.24
2018-11-25T23:33:59.425Z,7.33
2018-11-25T23:36:24.531Z,7.52
2018-11-25T23:41:26.260Z,7.50
2018-11-25T23:43:51.338Z,7.46
2018-11-25T23:46:16.409Z,7.31
2018-11-25T23:48:41.532Z,7.51
2018-11-25T23:51:07.021Z,7.48
2018-11-25T23:53:32.143Z,7.44
2018-11-25T23:55:57.185Z,7.47
2018-11-25T23:58:22.253Z,7.43
